createdAt,value
2018-12-27T00:02:06.807Z,19.10
2018-12-27T00:04:57.312Z,16.60
2018-12-27T00:07:47.644Z,18.90
2018-12-27T00:10:38.307Z,27.63
2018-12-27T00:13:29.003Z,269.77
2018-12-27T00:16:20.661Z,154.67
2018-12-27T00:19:11.119Z,41.60
2018-12-27T00:22:01.805Z,29.27
2018-12-27T00:24:52.194Z,49.03
2018-12-27T00:27:42.714Z,32.27
2018-12-27T00:30:33.601Z,26.43
2018-12-27T00:33:43.893Z,20.77
2018-12-27T00:39:37.217Z,22.83
2018-12-27T00:42:28.185Z,23.47
2018-12-27T00:45:19.802Z,18.03
2018-12-27T00:48:10.831Z,17.17
2018-12-27T00:51:01.286Z,15.10
2018-12-27T00:53:52.259Z,20.03
2018-12-27T00:56:42.778Z,18.47
2018-12-27T00:59:34.375Z,19.23
2018-12-27T01:02:24.908Z,19.40
2018-12-27T01:05:16.119Z,22.27
2018-12-27T01:08:07.568Z,22.50
2018-12-27T01:10:59.171Z,26.47
2018-12-27T01:13:50.262Z,26.50
2018-12-27T01:16:41.306Z,38.77
2018-12-27T01:19:32.007Z,47.60
2018-12-27T01:22:23.066Z,31.23
2018-12-27T01:25:13.662Z,26.77
2018-12-27T01:28:04.361Z,30.73
2018-12-27T01:30:54.721Z,28.47
2018-12-27T01:33:45.752Z,29.97
2018-12-27T01:36:36.498Z,40.00
2018-12-27T01:39:27.412Z,39.17
2018-12-27T01:42:18.059Z,36.40
2018-12-27T01:45:09.599Z,36.33
2018-12-27T01:48:00.122Z,32.77
2018-12-27T01:50:54.681Z,31.57
2018-12-27T01:53:45.701Z,36.70
2018-12-27T01:56:55.052Z,35.53
2018-12-27T01:59:45.474Z,33.73
2018-12-27T02:02:35.978Z,26.27
2018-12-27T02:05:26.762Z,19.33
2018-12-27T02:08:18.699Z,20.67
2018-12-27T02:11:28.114Z,16.07
2018-12-27T02:14:19.104Z,15.10
2018-12-27T02:17:28.385Z,15.93
2018-12-27T02:20:19.033Z,22.47
2018-12-27T02:23:09.525Z,24.30
2018-12-27T02:26:00.093Z,15.80
2018-12-27T02:28:50.643Z,15.20
2018-12-27T02:35:02.115Z,15.33
2018-12-27T02:37:52.647Z,16.93
2018-12-27T02:40:43.625Z,19.10
2018-12-27T02:43:34.207Z,13.80
2018-12-27T02:46:43.560Z,13.57
2018-12-27T02:49:47.260Z,21.53
2018-12-27T02:52:38.175Z,16.00
2018-12-27T02:55:59.152Z,13.17
2018-12-27T02:59:21.694Z,27.67
2018-12-27T03:02:19.313Z,23.73
2018-12-27T03:05:39.375Z,22.60
2018-12-27T03:08:48.879Z,19.87
2018-12-27T03:11:39.904Z,16.00
2018-12-27T03:14:37.154Z,24.87
2018-12-27T03:17:29.088Z,21.23
2018-12-27T03:20:19.824Z,26.53
2018-12-27T03:23:10.854Z,25.77
2018-12-27T03:29:03.637Z,21.63
2018-12-27T03:31:54.629Z,18.90
2018-12-27T03:35:23.148Z,25.77
2018-12-27T03:38:32.547Z,22.33
2018-12-27T03:41:22.972Z,17.57
2018-12-27T03:44:13.610Z,15.83
2018-12-27T03:50:54.513Z,23.47
2018-12-27T03:53:55.710Z,15.97
2018-12-27T03:56:46.663Z,21.43
2018-12-27T03:59:39.076Z,15.17
2018-12-27T04:02:33.132Z,18.50
2018-12-27T04:11:24.712Z,13.97
2018-12-27T04:14:16.299Z,21.13
2018-12-27T04:17:06.764Z,18.23
2018-12-27T04:23:22.812Z,23.13
2018-12-27T04:26:27.127Z,19.27
2018-12-27T04:29:17.859Z,19.20
2018-12-27T04:38:14.877Z,19.63
2018-12-27T04:41:05.557Z,23.07
2018-12-27T04:43:56.315Z,30.33
2018-12-27T04:46:47.099Z,28.80
2018-12-27T04:49:37.534Z,25.63
2018-12-27T04:55:33.437Z,24.97
2018-12-27T04:58:24.317Z,15.27
2018-12-27T05:01:14.748Z,17.97
2018-12-27T05:04:05.540Z,25.17
2018-12-27T05:06:55.910Z,22.33
2018-12-27T05:09:46.277Z,28.57
2018-12-27T05:12:36.753Z,34.57
2018-12-27T05:15:46.093Z,72.03
2018-12-27T05:18:37.071Z,73.17
2018-12-27T05:24:46.287Z,36.63
2018-12-27T05:27:37.706Z,31.50
2018-12-27T05:30:49.795Z,24.83
2018-12-27T05:33:40.580Z,26.43
2018-12-27T05:36:31.103Z,39.00
2018-12-27T05:39:21.397Z,30.63
2018-12-27T05:42:12.231Z,86.33
2018-12-27T05:45:02.645Z,93.60
2018-12-27T05:47:53.022Z,32.00
2018-12-27T05:50:43.311Z,30.80
2018-12-27T05:53:48.105Z,23.33
2018-12-27T05:56:50.292Z,32.10
2018-12-27T05:59:59.161Z,131.63
2018-12-27T06:06:07.442Z,85.90
2018-12-27T06:08:57.875Z,107.63
2018-12-27T06:11:51.144Z,113.83
2018-12-27T06:15:00.584Z,77.00
2018-12-27T06:17:51.543Z,85.57
2018-12-27T06:20:41.830Z,88.80
2018-12-27T06:23:32.690Z,69.27
2018-12-27T06:26:42.405Z,36.10
2018-12-27T06:29:32.885Z,37.97
2018-12-27T06:32:24.222Z,45.93
2018-12-27T06:35:14.630Z,49.60
2018-12-27T06:38:04.968Z,45.77
2018-12-27T06:44:21.808Z,46.23
2018-12-27T06:47:12.522Z,50.83
2018-12-27T06:50:04.352Z,48.33
2018-12-27T06:52:54.975Z,58.97
2018-12-27T06:59:34.653Z,78.77
2018-12-27T07:02:25.030Z,63.47
2018-12-27T07:09:01.964Z,247.30
2018-12-27T07:11:52.447Z,212.57
2018-12-27T07:14:42.816Z,154.27
2018-12-27T07:17:33.538Z,107.50
2018-12-27T07:20:23.995Z,115.53
2018-12-27T07:23:14.765Z,301.03
2018-12-27T07:26:06.228Z,101.00
2018-12-27T07:28:56.731Z,43.00
2018-12-27T07:35:09.875Z,44.80
2018-12-27T07:38:00.224Z,144.07
2018-12-27T07:40:59.477Z,126.73
2018-12-27T07:43:50.794Z,72.17
2018-12-27T07:46:41.291Z,40.83
2018-12-27T07:49:51.449Z,36.43
2018-12-27T07:52:41.792Z,38.23
2018-12-27T07:55:55.604Z,42.23
2018-12-27T07:58:46.332Z,42.70
2018-12-27T08:05:05.103Z,40.00
2018-12-27T08:08:14.969Z,150.67
2018-12-27T08:14:12.773Z,36.10
2018-12-27T08:17:04.539Z,55.03
2018-12-27T08:20:15.725Z,58.73
2018-12-27T08:23:26.482Z,85.53
2018-12-27T08:26:21.616Z,105.10
2018-12-27T08:29:23.488Z,105.80
2018-12-27T08:32:14.663Z,267.33
2018-12-27T08:37:46.230Z,63.83
2018-12-27T08:40:37.535Z,62.47
2018-12-27T08:43:46.604Z,43.73
2018-12-27T08:46:37.116Z,83.17
2018-12-27T08:49:31.799Z,61.97
2018-12-27T08:52:33.851Z,35.50
2018-12-27T08:58:26.951Z,30.63
2018-12-27T09:01:18.263Z,25.33
2018-12-27T09:04:09.060Z,27.00
2018-12-27T09:06:59.437Z,19.27
2018-12-27T09:09:50.462Z,94.43
2018-12-27T09:12:40.842Z,64.20
2018-12-27T09:15:31.183Z,55.37
2018-12-27T09:19:18.627Z,73.57
2018-12-27T09:22:08.918Z,86.07
2018-12-27T09:25:01.782Z,59.17
2018-12-27T09:27:59.693Z,40.93
2018-12-27T09:30:50.495Z,29.10
2018-12-27T09:37:22.447Z,34.60
2018-12-27T09:40:12.870Z,48.53
2018-12-27T09:43:03.298Z,32.70
2018-12-27T09:45:54.247Z,43.17
2018-12-27T09:48:45.407Z,35.27
2018-12-27T09:51:36.275Z,18.77
2018-12-27T09:54:27.016Z,22.13
2018-12-27T09:57:17.472Z,18.40
2018-12-27T10:00:08.618Z,156.80
2018-12-27T10:03:06.930Z,111.45
2018-12-27T10:05:57.797Z,39.17
2018-12-27T10:08:48.689Z,80.03
2018-12-27T10:15:23.253Z,99.70
2018-12-27T10:18:17.117Z,24.93
2018-12-27T10:24:10.152Z,60.70
2018-12-27T10:27:00.626Z,44.83
2018-12-27T10:29:51.004Z,107.07
2018-12-27T10:32:41.479Z,36.90
2018-12-27T10:35:32.342Z,73.17
2018-12-27T10:38:23.573Z,29.57
2018-12-27T10:41:14.326Z,64.37
2018-12-27T10:44:05.005Z,20.83
2018-12-27T10:46:55.427Z,16.80
2018-12-27T10:49:45.841Z,47.40
2018-12-27T10:52:37.006Z,20.47
2018-12-27T10:55:38.850Z,20.60
2018-12-27T10:58:29.116Z,20.60
2018-12-27T11:01:19.551Z,16.33
2018-12-27T11:04:09.810Z,71.70
2018-12-27T11:07:00.248Z,27.90
2018-12-27T11:09:50.844Z,26.53
2018-12-27T11:12:41.223Z,53.37
2018-12-27T11:15:32.034Z,29.23
2018-12-27T11:18:22.439Z,44.60
2018-12-27T11:21:13.130Z,31.70
2018-12-27T11:24:03.566Z,25.43
2018-12-27T11:26:54.532Z,26.90
2018-12-27T11:29:45.354Z,22.80
2018-12-27T11:32:35.758Z,25.03
2018-12-27T11:35:26.198Z,15.97
2018-12-27T11:38:16.654Z,19.93
2018-12-27T11:41:07.064Z,21.67
2018-12-27T11:43:57.857Z,30.03
2018-12-27T11:46:48.868Z,91.13
2018-12-27T11:49:39.241Z,27.50
2018-12-27T11:52:29.661Z,42.60
2018-12-27T11:55:19.983Z,27.83
2018-12-27T11:58:10.472Z,22.07
2018-12-27T12:01:00.766Z,20.57
2018-12-27T12:03:51.223Z,23.23
2018-12-27T12:06:41.653Z,22.70
2018-12-27T12:09:32.165Z,49.43
2018-12-27T12:12:22.836Z,29.30
2018-12-27T12:15:13.268Z,22.33
2018-12-27T12:18:04.056Z,30.27
2018-12-27T12:20:54.513Z,36.33
2018-12-27T12:23:45.316Z,42.67
2018-12-27T12:26:35.630Z,41.33
2018-12-27T12:29:25.985Z,26.47
2018-12-27T12:32:16.697Z,46.67
2018-12-27T12:35:07.308Z,55.00
2018-12-27T12:38:09.376Z,46.33
2018-12-27T12:40:59.897Z,27.57
2018-12-27T12:43:50.188Z,28.40
2018-12-27T12:46:40.584Z,37.63
2018-12-27T12:49:30.959Z,41.27
2018-12-27T12:52:21.916Z,30.83
2018-12-27T12:55:12.587Z,42.13
2018-12-27T12:58:03.101Z,37.63
2018-12-27T13:00:53.473Z,28.17
2018-12-27T13:07:27.475Z,34.87
2018-12-27T13:10:18.426Z,31.97
2018-12-27T13:13:10.696Z,49.87
2018-12-27T13:19:28.670Z,138.03
2018-12-27T13:22:21.041Z,85.97
2018-12-27T13:25:11.769Z,29.37
2018-12-27T13:28:02.450Z,34.57
2018-12-27T13:34:34.212Z,40.87
2018-12-27T13:37:24.461Z,47.17
2018-12-27T13:40:15.202Z,46.80
2018-12-27T13:43:05.741Z,81.87
2018-12-27T13:45:56.883Z,105.93
2018-12-27T13:48:48.344Z,160.13
2018-12-27T13:51:39.325Z,76.50
2018-12-27T13:54:29.724Z,75.20
2018-12-27T13:57:21.292Z,132.47
2018-12-27T14:00:11.550Z,187.87
2018-12-27T14:03:02.036Z,122.07
2018-12-27T14:05:52.330Z,84.20
2018-12-27T14:08:42.920Z,38.53
2018-12-27T14:11:33.559Z,47.03
2018-12-27T14:14:24.500Z,45.83
2018-12-27T14:17:15.192Z,50.63
2018-12-27T14:20:06.319Z,43.27
2018-12-27T14:22:57.099Z,46.90
2018-12-27T14:25:47.919Z,43.70
2018-12-27T14:28:38.330Z,62.57
2018-12-27T14:35:13.510Z,69.20
2018-12-27T14:37:44.836Z,191.90
2018-12-27T14:40:15.824Z,173.70
2018-12-27T14:42:46.923Z,237.43
2018-12-27T14:45:17.816Z,90.57
2018-12-27T14:47:49.245Z,140.83
2018-12-27T14:53:03.101Z,210.77
2018-12-27T14:55:53.509Z,150.87
2018-12-27T14:58:25.680Z,182.37
2018-12-27T15:01:16.745Z,260.53
2018-12-27T15:03:47.718Z,145.60
2018-12-27T15:06:18.696Z,254.30
2018-12-27T15:08:49.705Z,221.70
2018-12-27T15:11:21.121Z,275.27
2018-12-27T15:13:53.123Z,71.57
2018-12-27T15:16:24.088Z,70.53
2018-12-27T15:18:55.394Z,86.03
2018-12-27T15:21:26.364Z,45.63
2018-12-27T15:23:58.409Z,53.77
2018-12-27T15:26:49.631Z,79.80
2018-12-27T15:29:31.624Z,95.77
2018-12-27T15:32:02.571Z,135.27
2018-12-27T15:34:44.719Z,98.67
2018-12-27T15:37:16.104Z,158.93
2018-12-27T15:39:49.267Z,113.17
2018-12-27T15:42:20.361Z,76.23
2018-12-27T15:45:10.300Z,126.73
2018-12-27T15:47:41.553Z,58.77
2018-12-27T15:50:12.705Z,54.73
2018-12-27T15:52:43.759Z,59.77
2018-12-27T15:55:16.111Z,57.43
2018-12-27T15:57:47.788Z,111.97
2018-12-27T16:00:19.197Z,75.10
2018-12-27T16:02:50.557Z,138.60
2018-12-27T16:05:22.225Z,107.70
2018-12-27T16:07:53.454Z,79.03
2018-12-27T16:10:25.801Z,136.93
2018-12-27T16:12:57.846Z,133.43
2018-12-27T16:15:30.228Z,157.83
2018-12-27T16:18:01.520Z,92.80
2018-12-27T16:20:45.501Z,70.67
2018-12-27T16:23:19.615Z,98.70
2018-12-27T16:25:51.435Z,164.67
2018-12-27T16:28:22.426Z,187.07
2018-12-27T16:30:53.541Z,56.50
2018-12-27T16:33:43.871Z,32.40
2018-12-27T16:38:57.673Z,35.47
2018-12-27T16:44:54.027Z,57.47
2018-12-27T16:47:26.389Z,70.77
2018-12-27T16:49:57.398Z,116.90
2018-12-27T16:52:28.388Z,144.73
2018-12-27T16:55:00.254Z,74.30
2018-12-27T16:57:39.478Z,84.93
2018-12-27T17:00:29.867Z,123.17
2018-12-27T17:06:03.442Z,149.70
2018-12-27T17:08:34.685Z,154.60
2018-12-27T17:11:06.656Z,130.60
2018-12-27T17:13:38.098Z,151.23
2018-12-27T17:16:09.276Z,100.40
2018-12-27T17:18:40.591Z,86.40
2018-12-27T17:21:11.758Z,114.77
2018-12-27T17:26:46.275Z,128.77
2018-12-27T17:29:17.889Z,133.20
2018-12-27T17:31:49.895Z,129.27
2018-12-27T17:34:23.613Z,113.53
2018-12-27T17:36:55.097Z,120.37
2018-12-27T17:39:26.260Z,184.57
2018-12-27T17:42:16.753Z,128.00
2018-12-27T17:47:46.216Z,99.40
2018-12-27T17:50:17.396Z,119.23
2018-12-27T17:52:49.950Z,171.03
2018-12-27T17:55:21.077Z,145.53
2018-12-27T18:01:04.029Z,69.87
2018-12-27T18:07:18.932Z,81.57
2018-12-27T18:09:50.712Z,92.47
2018-12-27T18:12:42.178Z,112.43
2018-12-27T18:15:13.835Z,96.07
2018-12-27T18:18:03.765Z,89.77
2018-12-27T18:20:34.825Z,54.13
2018-12-27T18:23:06.351Z,69.10
2018-12-27T18:25:37.725Z,64.20
2018-12-27T18:28:08.649Z,49.27
2018-12-27T18:30:39.663Z,48.90
2018-12-27T18:33:10.676Z,66.73
2018-12-27T18:35:43.755Z,88.93
2018-12-27T18:41:05.515Z,434.10
2018-12-27T18:43:36.829Z,155.23
2018-12-27T18:46:07.828Z,168.00
2018-12-27T18:48:39.325Z,153.00
2018-12-27T18:54:45.057Z,148.07
2018-12-27T18:57:27.873Z,111.23
2018-12-27T19:00:27.183Z,155.20
2018-12-27T19:02:58.525Z,91.00
2018-12-27T19:05:31.315Z,72.27
2018-12-27T19:08:03.130Z,130.33
2018-12-27T19:10:35.325Z,85.53
2018-12-27T19:13:25.870Z,105.00
2018-12-27T19:16:00.839Z,113.40
2018-12-27T19:18:52.141Z,115.20
2018-12-27T19:21:57.649Z,127.77
2018-12-27T19:24:29.735Z,132.03
2018-12-27T19:27:22.433Z,96.60
2018-12-27T19:30:05.306Z,74.03
2018-12-27T19:32:37.805Z,99.13
2018-12-27T19:35:09.082Z,92.13
2018-12-27T19:41:08.937Z,101.50
2018-12-27T19:43:40.780Z,117.00
2018-12-27T19:46:12.952Z,154.43
2018-12-27T19:52:07.434Z,122.90
2018-12-27T19:57:44.511Z,119.90
2018-12-27T20:00:15.637Z,94.30
2018-12-27T20:05:53.030Z,108.23
2018-12-27T20:08:43.518Z,94.37
2018-12-27T20:11:53.782Z,107.53
2018-12-27T20:14:27.001Z,108.60
2018-12-27T20:16:58.696Z,153.30
2018-12-27T20:23:24.356Z,60.97
2018-12-27T20:26:10.276Z,63.47
2018-12-27T20:32:05.337Z,67.00
2018-12-27T20:34:37.000Z,118.23
2018-12-27T20:37:09.376Z,125.40
2018-12-27T20:39:41.524Z,111.07
2018-12-27T20:42:39.431Z,107.90
2018-12-27T20:45:10.753Z,92.30
2018-12-27T20:47:43.748Z,81.27
2018-12-27T20:53:47.918Z,305.00
2018-12-27T20:56:18.957Z,256.97
2018-12-27T20:59:28.352Z,201.00
2018-12-27T21:02:37.570Z,233.93
2018-12-27T21:08:37.378Z,180.73
2018-12-27T21:14:37.097Z,134.67
2018-12-27T21:17:31.151Z,165.33
2018-12-27T21:20:33.100Z,89.20
2018-12-27T21:23:25.480Z,72.60
2018-12-27T21:26:42.081Z,80.40
2018-12-27T21:29:32.557Z,153.93
2018-12-27T21:32:24.996Z,398.90
2018-12-27T21:35:23.188Z,325.30
2018-12-27T21:38:21.146Z,232.13
2018-12-27T21:41:13.311Z,165.67
2018-12-27T21:44:10.911Z,150.80
2018-12-27T21:50:10.706Z,128.30
2018-12-27T21:53:01.092Z,115.80
2018-12-27T21:55:51.868Z,76.73
2018-12-27T21:58:42.512Z,92.00
2018-12-27T22:05:01.562Z,160.07
2018-12-27T22:07:51.912Z,174.00
2018-12-27T22:10:44.759Z,184.10
2018-12-27T22:14:14.544Z,151.00
2018-12-27T22:16:52.368Z,146.27
2018-12-27T22:19:54.053Z,169.37
2018-12-27T22:22:48.744Z,134.70
2018-12-27T22:25:46.200Z,184.53
2018-12-27T22:28:57.530Z,121.73
2018-12-27T22:32:13.707Z,70.53
2018-12-27T22:34:58.242Z,61.77
2018-12-27T22:37:57.297Z,113.50
2018-12-27T22:43:57.433Z,83.60
2018-12-27T22:46:48.254Z,90.23
2018-12-27T22:49:39.160Z,109.43
2018-12-27T22:52:30.051Z,110.17
2018-12-27T22:55:37.985Z,169.10
2018-12-27T22:58:28.683Z,176.33
2018-12-27T23:01:19.643Z,125.03
2018-12-27T23:04:10.223Z,89.67
2018-12-27T23:07:00.551Z,77.93
2018-12-27T23:09:51.235Z,91.97
2018-12-27T23:12:42.931Z,94.60
2018-12-27T23:15:33.329Z,94.77
2018-12-27T23:18:24.210Z,99.80
2018-12-27T23:21:16.232Z,109.43
2018-12-27T23:24:07.978Z,103.67
2018-12-27T23:26:58.728Z,212.07
2018-12-27T23:30:02.335Z,125.77
2018-12-27T23:32:53.355Z,103.97
2018-12-27T23:35:44.021Z,107.20
2018-12-27T23:38:36.120Z,117.57
2018-12-27T23:41:27.479Z,186.80
2018-12-27T23:44:35.319Z,157.90
2018-12-27T23:47:21.586Z,153.97
2018-12-27T23:50:12.188Z,109.70
2018-12-27T23:53:03.057Z,92.63
2018-12-27T23:58:40.521Z,121.33
